sensor_id;sensor_type;location;lat;lon;timestamp;temperature;humidity
74940;HTU21D;63505;45.226;37.908;2023-05-14T00:02:20;12.60;70.98
74940;HTU21D;63505;45.226;37.908;2023-05-14T00:04:46;12.56;71.06
74940;HTU21D;63505;45.226;37.908;2023-05-14T00:07:11;12.48;71.22
74940;HTU21D;63505;45.226;37.908;2023-05-14T00:09:37;12.48;71.29
74940;HTU21D;63505;45.226;37.908;2023-05-14T00:12:04;12.47;71.32
74940;HTU21D;63505;45.226;37.908;2023-05-14T00:14:30;12.43;71.38
74940;HTU21D;63505;45.226;37.908;2023-05-14T00:16:56;12.41;71.46
74940;HTU21D;63505;45.226;37.908;2023-05-14T00:19:22;12.41;71.52
74940;HTU21D;63505;45.226;37.908;2023-05-14T00:21:48;12.40;71.55
74940;HTU21D;63505;45.226;37.908;2023-05-14T00:24:14;12.37;71.62
74940;HTU21D;63505;45.226;37.908;2023-05-14T00:26:40;12.35;71.68
74940;HTU21D;63505;45.226;37.908;2023-05-14T00:29:06;12.33;71.75
74940;HTU21D;63505;45.226;37.908;2023-05-14T00:31:32;12.34;71.80
74940;HTU21D;63505;45.226;37.908;2023-05-14T00:33:57;12.32;71.87
74940;HTU21D;63505;45.226;37.908;2023-05-14T00:36:23;12.31;71.92
74940;HTU21D;63505;45.226;37.908;2023-05-14T00:38:49;12.31;71.96
74940;HTU21D;63505;45.226;37.908;2023-05-14T00:41:15;12.28;72.03
74940;HTU21D;63505;45.226;37.908;2023-05-14T00:43:41;12.26;72.09
74940;HTU21D;63505;45.226;37.908;2023-05-14T00:46:07;12.22;72.15
74940;HTU21D;63505;45.226;37.908;2023-05-14T00:48:33;12.18;72.22
74940;HTU21D;63505;45.226;37.908;2023-05-14T00:50:59;12.14;72.33
74940;HTU21D;63505;45.226;37.908;2023-05-14T00:53:26;12.12;72.40
74940;HTU21D;63505;45.226;37.908;2023-05-14T00:55:52;12.08;72.48
74940;HTU21D;63505;45.226;37.908;2023-05-14T00:58:18;12.06;72.54
74940;HTU21D;63505;45.226;37.908;2023-05-14T01:00:44;12.04;72.58
74940;HTU21D;63505;45.226;37.908;2023-05-14T01:03:10;12.05;72.59
74940;HTU21D;63505;45.226;37.908;2023-05-14T01:06:14;12.04;72.61
74940;HTU21D;63505;45.226;37.908;2023-05-14T01:11:32;12.01;72.63
74940;HTU21D;63505;45.226;37.908;2023-05-14T01:16:39;12.00;72.67
74940;HTU21D;63505;45.226;37.908;2023-05-14T01:19:09;11.99;72.74
74940;HTU21D;63505;45.226;37.908;2023-05-14T01:21:42;11.98;72.81
74940;HTU21D;63505;45.226;37.908;2023-05-14T01:24:08;11.97;72.86
74940;HTU21D;63505;45.226;37.908;2023-05-14T01:26:35;11.96;72.89
74940;HTU21D;63505;45.226;37.908;2023-05-14T01:31:35;11.90;73.04
74940;HTU21D;63505;45.226;37.908;2023-05-14T01:34:04;11.85;73.13
74940;HTU21D;63505;45.226;37.908;2023-05-14T01:36:30;11.83;73.17
74940;HTU21D;63505;45.226;37.908;2023-05-14T01:38:59;11.82;73.22
74940;HTU21D;63505;45.226;37.908;2023-05-14T01:41:25;11.77;73.24
74940;HTU21D;63505;45.226;37.908;2023-05-14T01:43:52;11.69;73.36
74940;HTU21D;63505;45.226;37.908;2023-05-14T01:46:18;11.63;73.52
74940;HTU21D;63505;45.226;37.908;2023-05-14T01:48:44;11.63;73.61
74940;HTU21D;63505;45.226;37.908;2023-05-14T01:51:10;11.67;73.61
74940;HTU21D;63505;45.226;37.908;2023-05-14T01:53:39;11.69;73.55
74940;HTU21D;63505;45.226;37.908;2023-05-14T01:56:05;11.68;73.57
74940;HTU21D;63505;45.226;37.908;2023-05-14T01:58:31;11.68;73.61
74940;HTU21D;63505;45.226;37.908;2023-05-14T02:00:57;11.68;73.62
74940;HTU21D;63505;45.226;37.908;2023-05-14T02:03:23;11.68;73.69
74940;HTU21D;63505;45.226;37.908;2023-05-14T02:05:49;11.66;73.68
74940;HTU21D;63505;45.226;37.908;2023-05-14T02:08:15;11.67;73.74
74940;HTU21D;63505;45.226;37.908;2023-05-14T02:10:41;11.69;73.76
74940;HTU21D;63505;45.226;37.908;2023-05-14T02:13:07;11.68;73.80
74940;HTU21D;63505;45.226;37.908;2023-05-14T02:15:34;11.67;73.86
74940;HTU21D;63505;45.226;37.908;2023-05-14T02:18:00;11.67;73.83
74940;HTU21D;63505;45.226;37.908;2023-05-14T02:20:26;11.69;73.86
74940;HTU21D;63505;45.226;37.908;2023-05-14T02:22:52;11.69;73.85
74940;HTU21D;63505;45.226;37.908;2023-05-14T02:25:17;11.69;73.85
74940;HTU21D;63505;45.226;37.908;2023-05-14T02:27:43;11.71;73.86
74940;HTU21D;63505;45.226;37.908;2023-05-14T02:30:10;11.73;73.86
74940;HTU21D;63505;45.226;37.908;2023-05-14T02:32:36;11.77;73.88
74940;HTU21D;63505;45.226;37.908;2023-05-14T02:35:02;11.79;73.88
74940;HTU21D;63505;45.226;37.908;2023-05-14T02:37:28;11.82;73.91
74940;HTU21D;63505;45.226;37.908;2023-05-14T02:39:53;11.85;73.96
74940;HTU21D;63505;45.226;37.908;2023-05-14T02:42:21;11.87;73.98
74940;HTU21D;63505;45.226;37.908;2023-05-14T02:44:47;11.88;74.01
74940;HTU21D;63505;45.226;37.908;2023-05-14T02:47:13;11.91;74.05
74940;HTU21D;63505;45.226;37.908;2023-05-14T02:49:39;11.93;74.10
74940;HTU21D;63505;45.226;37.908;2023-05-14T02:52:05;11.96;74.15
74940;HTU21D;63505;45.226;37.908;2023-05-14T02:54:31;11.97;74.19
74940;HTU21D;63505;45.226;37.908;2023-05-14T02:56:57;12.01;74.25
74940;HTU21D;63505;45.226;37.908;2023-05-14T02:59:23;12.04;74.25
74940;HTU21D;63505;45.226;37.908;2023-05-14T03:01:49;12.07;74.29
74940;HTU21D;63505;45.226;37.908;2023-05-14T03:04:15;12.12;74.31
74940;HTU21D;63505;45.226;37.908;2023-05-14T03:06:41;12.17;74.31
74940;HTU21D;63505;45.226;37.908;2023-05-14T03:09:07;12.21;74.34
74940;HTU21D;63505;45.226;37.908;2023-05-14T03:11:33;12.23;74.38
74940;HTU21D;63505;45.226;37.908;2023-05-14T03:13:59;12.28;74.44
74940;HTU21D;63505;45.226;37.908;2023-05-14T03:16:26;12.31;74.47
74940;HTU21D;63505;45.226;37.908;2023-05-14T03:18:51;12.37;74.52
74940;HTU21D;63505;45.226;37.908;2023-05-14T03:21:17;12.43;74.54
74940;HTU21D;63505;45.226;37.908;2023-05-14T03:23:43;12.48;74.54
74940;HTU21D;63505;45.226;37.908;2023-05-14T03:26:09;12.53;74.57
74940;HTU21D;63505;45.226;37.908;2023-05-14T03:28:35;12.59;74.55
74940;HTU21D;63505;45.226;37.908;2023-05-14T03:31:01;12.64;74.59
74940;HTU21D;63505;45.226;37.908;2023-05-14T03:33:29;12.70;74.62
74940;HTU21D;63505;45.226;37.908;2023-05-14T03:35:55;12.76;74.63
74940;HTU21D;63505;45.226;37.908;2023-05-14T03:38:21;12.82;74.61
74940;HTU21D;63505;45.226;37.908;2023-05-14T03:40:47;12.89;74.62
74940;HTU21D;63505;45.226;37.908;2023-05-14T03:43:13;12.95;74.63
74940;HTU21D;63505;45.226;37.908;2023-05-14T03:45:39;13.01;74.64
74940;HTU21D;63505;45.226;37.908;2023-05-14T03:48:05;13.05;74.64
74940;HTU21D;63505;45.226;37.908;2023-05-14T03:50:31;13.10;74.70
74940;HTU21D;63505;45.226;37.908;2023-05-14T03:52:57;13.16;74.68
74940;HTU21D;63505;45.226;37.908;2023-05-14T03:55:23;13.20;74.69
74940;HTU21D;63505;45.226;37.908;2023-05-14T03:57:49;13.26;74.70
74940;HTU21D;63505;45.226;37.908;2023-05-14T04:00:15;13.29;74.73
74940;HTU21D;63505;45.226;37.908;2023-05-14T04:02:44;13.33;74.80
74940;HTU21D;63505;45.226;37.908;2023-05-14T04:05:10;13.41;74.84
74940;HTU21D;63505;45.226;37.908;2023-05-14T04:07:36;13.54;74.83
74940;HTU21D;63505;45.226;37.908;2023-05-14T04:10:02;13.66;74.74
74940;HTU21D;63505;45.226;37.908;2023-05-14T04:12:29;13.77;74.64
74940;HTU21D;63505;45.226;37.908;2023-05-14T04:14:57;13.86;74.60
74940;HTU21D;63505;45.226;37.908;2023-05-14T04:17:23;14.00;74.55
74940;HTU21D;63505;45.226;37.908;2023-05-14T04:19:49;14.11;74.47
74940;HTU21D;63505;45.226;37.908;2023-05-14T04:22:14;14.22;74.35
74940;HTU21D;63505;45.226;37.908;2023-05-14T04:24:40;14.30;74.32
74940;HTU21D;63505;45.226;37.908;2023-05-14T04:27:06;14.39;74.31
74940;HTU21D;63505;45.226;37.908;2023-05-14T04:29:32;14.50;74.30
74940;HTU21D;63505;45.226;37.908;2023-05-14T04:31:58;14.56;74.23
74940;HTU21D;63505;45.226;37.908;2023-05-14T04:34:24;14.63;74.25
74940;HTU21D;63505;45.226;37.908;2023-05-14T04:36:50;14.68;74.31
74940;HTU21D;63505;45.226;37.908;2023-05-14T04:39:16;14.77;74.31
74940;HTU21D;63505;45.226;37.908;2023-05-14T04:41:43;14.89;74.28
74940;HTU21D;63505;45.226;37.908;2023-05-14T04:44:11;15.00;74.18
74940;HTU21D;63505;45.226;37.908;2023-05-14T04:46:37;15.11;74.10
74940;HTU21D;63505;45.226;37.908;2023-05-14T04:49:02;15.22;73.99
74940;HTU21D;63505;45.226;37.908;2023-05-14T04:51:28;15.26;73.86
74940;HTU21D;63505;45.226;37.908;2023-05-14T04:53:54;15.32;73.88
74940;HTU21D;63505;45.226;37.908;2023-05-14T04:56:20;15.38;73.81
74940;HTU21D;63505;45.226;37.908;2023-05-14T04:58:46;15.40;73.84
74940;HTU21D;63505;45.226;37.908;2023-05-14T05:01:12;15.44;73.82
74940;HTU21D;63505;45.226;37.908;2023-05-14T05:03:38;15.51;73.73
74940;HTU21D;63505;45.226;37.908;2023-05-14T05:06:04;15.56;73.58
74940;HTU21D;63505;45.226;37.908;2023-05-14T05:08:30;15.57;73.48
74940;HTU21D;63505;45.226;37.908;2023-05-14T05:10:56;15.62;73.36
74940;HTU21D;63505;45.226;37.908;2023-05-14T05:13:22;15.69;73.18
74940;HTU21D;63505;45.226;37.908;2023-05-14T05:15:47;15.70;73.12
74940;HTU21D;63505;45.226;37.908;2023-05-14T05:18:13;15.71;73.05
74940;HTU21D;63505;45.226;37.908;2023-05-14T05:20:39;15.67;72.93
74940;HTU21D;63505;45.226;37.908;2023-05-14T05:23:05;15.67;72.81
74940;HTU21D;63505;45.226;37.908;2023-05-14T05:25:31;15.69;72.67
74940;HTU21D;63505;45.226;37.908;2023-05-14T05:27:57;15.74;72.54
74940;HTU21D;63505;45.226;37.908;2023-05-14T05:30:23;15.83;72.44
74940;HTU21D;63505;45.226;37.908;2023-05-14T05:32:48;15.89;72.29
74940;HTU21D;63505;45.226;37.908;2023-05-14T05:35:14;15.96;72.10
74940;HTU21D;63505;45.226;37.908;2023-05-14T05:37:41;16.01;71.96
74940;HTU21D;63505;45.226;37.908;2023-05-14T05:40:07;16.10;71.79
74940;HTU21D;63505;45.226;37.908;2023-05-14T05:42:34;16.13;71.60
74940;HTU21D;63505;45.226;37.908;2023-05-14T05:45:00;16.17;71.37
74940;HTU21D;63505;45.226;37.908;2023-05-14T05:47:26;16.21;71.24
74940;HTU21D;63505;45.226;37.908;2023-05-14T05:49:52;16.26;70.97
74940;HTU21D;63505;45.226;37.908;2023-05-14T05:52:18;16.26;70.80
74940;HTU21D;63505;45.226;37.908;2023-05-14T05:54:44;16.25;70.53
74940;HTU21D;63505;45.226;37.908;2023-05-14T05:57:10;16.25;70.42
74940;HTU21D;63505;45.226;37.908;2023-05-14T05:59:36;16.27;70.40
74940;HTU21D;63505;45.226;37.908;2023-05-14T06:02:01;16.42;70.26
74940;HTU21D;63505;45.226;37.908;2023-05-14T06:04:27;16.55;70.16
74940;HTU21D;63505;45.226;37.908;2023-05-14T06:06:53;16.67;70.03
74940;HTU21D;63505;45.226;37.908;2023-05-14T06:09:20;16.77;69.92
74940;HTU21D;63505;45.226;37.908;2023-05-14T06:11:45;16.78;69.79
74940;HTU21D;63505;45.226;37.908;2023-05-14T06:14:11;16.84;69.70
74940;HTU21D;63505;45.226;37.908;2023-05-14T06:16:37;16.88;69.52
74940;HTU21D;63505;45.226;37.908;2023-05-14T06:19:03;16.92;69.39
74940;HTU21D;63505;45.226;37.908;2023-05-14T06:21:29;17.03;69.14
74940;HTU21D;63505;45.226;37.908;2023-05-14T06:23:55;17.07;68.70
74940;HTU21D;63505;45.226;37.908;2023-05-14T06:26:21;17.11;68.37
74940;HTU21D;63505;45.226;37.908;2023-05-14T06:28:47;17.30;68.29
74940;HTU21D;63505;45.226;37.908;2023-05-14T06:31:13;17.51;68.00
74940;HTU21D;63505;45.226;37.908;2023-05-14T06:33:39;17.65;67.69
74940;HTU21D;63505;45.226;37.908;2023-05-14T06:36:06;17.74;67.36
74940;HTU21D;63505;45.226;37.908;2023-05-14T06:38:33;17.79;67.00
74940;HTU21D;63505;45.226;37.908;2023-05-14T06:40:59;17.90;66.92
74940;HTU21D;63505;45.226;37.908;2023-05-14T06:43:25;18.04;66.73
74940;HTU21D;63505;45.226;37.908;2023-05-14T06:45:51;18.20;66.53
74940;HTU21D;63505;45.226;37.908;2023-05-14T06:48:17;18.38;66.46
74940;HTU21D;63505;45.226;37.908;2023-05-14T06:50:44;18.53;66.14
74940;HTU21D;63505;45.226;37.908;2023-05-14T06:53:10;18.68;66.03
74940;HTU21D;63505;45.226;37.908;2023-05-14T06:55:36;18.80;65.94
74940;HTU21D;63505;45.226;37.908;2023-05-14T06:58:01;18.85;65.58
74940;HTU21D;63505;45.226;37.908;2023-05-14T07:00:29;18.86;65.51
74940;HTU21D;63505;45.226;37.908;2023-05-14T07:02:55;18.86;65.24
74940;HTU21D;63505;45.226;37.908;2023-05-14T07:05:20;18.95;65.14
74940;HTU21D;63505;45.226;37.908;2023-05-14T07:07:46;19.10;64.95
74940;HTU21D;63505;45.226;37.908;2023-05-14T07:10:12;19.26;64.62
74940;HTU21D;63505;45.226;37.908;2023-05-14T07:12:38;19.25;63.95
74940;HTU21D;63505;45.226;37.908;2023-05-14T07:15:04;19.31;63.66
74940;HTU21D;63505;45.226;37.908;2023-05-14T07:17:30;19.43;63.53
74940;HTU21D;63505;45.226;37.908;2023-05-14T07:19:56;19.52;62.98
74940;HTU21D;63505;45.226;37.908;2023-05-14T07:22:22;19.56;62.76
74940;HTU21D;63505;45.226;37.908;2023-05-14T07:24:48;19.66;62.50
74940;HTU21D;63505;45.226;37.908;2023-05-14T07:27:14;19.73;62.35
74940;HTU21D;63505;45.226;37.908;2023-05-14T07:29:42;19.84;62.28
74940;HTU21D;63505;45.226;37.908;2023-05-14T07:32:09;19.89;62.18
74940;HTU21D;63505;45.226;37.908;2023-05-14T07:34:35;19.95;61.79
74940;HTU21D;63505;45.226;37.908;2023-05-14T07:37:01;19.79;61.44
74940;HTU21D;63505;45.226;37.908;2023-05-14T07:39:27;19.77;61.66
74940;HTU21D;63505;45.226;37.908;2023-05-14T07:41:53;19.70;61.19
74940;HTU21D;63505;45.226;37.908;2023-05-14T07:44:19;19.86;61.29
74940;HTU21D;63505;45.226;37.908;2023-05-14T07:46:46;20.01;60.89
74940;HTU21D;63505;45.226;37.908;2023-05-14T07:49:12;20.15;60.82
74940;HTU21D;63505;45.226;37.908;2023-05-14T07:51:38;20.32;60.57
74940;HTU21D;63505;45.226;37.908;2023-05-14T07:54:04;20.40;60.39
74940;HTU21D;63505;45.226;37.908;2023-05-14T07:56:30;20.51;60.38
74940;HTU21D;63505;45.226;37.908;2023-05-14T07:58:55;20.59;60.22
74940;HTU21D;63505;45.226;37.908;2023-05-14T08:01:21;20.71;60.05
74940;HTU21D;63505;45.226;37.908;2023-05-14T08:03:47;20.73;59.36
74940;HTU21D;63505;45.226;37.908;2023-05-14T08:06:13;20.69;59.10
74940;HTU21D;63505;45.226;37.908;2023-05-14T08:08:39;20.85;59.13
74940;HTU21D;63505;45.226;37.908;2023-05-14T08:11:05;21.02;59.03
74940;HTU21D;63505;45.226;37.908;2023-05-14T08:13:31;21.19;58.52
74940;HTU21D;63505;45.226;37.908;2023-05-14T08:15:57;21.25;58.45
74940;HTU21D;63505;45.226;37.908;2023-05-14T08:18:23;21.35;58.13
74940;HTU21D;63505;45.226;37.908;2023-05-14T08:20:49;21.27;57.39
74940;HTU21D;63505;45.226;37.908;2023-05-14T08:23:15;21.16;57.14
74940;HTU21D;63505;45.226;37.908;2023-05-14T08:25:41;21.34;57.26
74940;HTU21D;63505;45.226;37.908;2023-05-14T08:28:07;21.58;57.04
74940;HTU21D;63505;45.226;37.908;2023-05-14T08:30:33;21.80;56.81
74940;HTU21D;63505;45.226;37.908;2023-05-14T08:32:59;22.02;56.81
74940;HTU21D;63505;45.226;37.908;2023-05-14T08:35:25;22.23;56.42
74940;HTU21D;63505;45.226;37.908;2023-05-14T08:37:51;22.33;56.18
74940;HTU21D;63505;45.226;37.908;2023-05-14T08:40:17;22.35;55.99
74940;HTU21D;63505;45.226;37.908;2023-05-14T08:42:43;22.42;56.04
74940;HTU21D;63505;45.226;37.908;2023-05-14T08:45:20;22.54;55.80
74940;HTU21D;63505;45.226;37.908;2023-05-14T08:47:48;22.65;55.65
74940;HTU21D;63505;45.226;37.908;2023-05-14T08:50:15;22.79;55.49
74940;HTU21D;63505;45.226;37.908;2023-05-14T08:52:41;22.90;55.17
74940;HTU21D;63505;45.226;37.908;2023-05-14T08:55:07;22.98;54.91
74940;HTU21D;63505;45.226;37.908;2023-05-14T08:57:34;22.98;54.62
74940;HTU21D;63505;45.226;37.908;2023-05-14T09:00:02;22.93;54.33
74940;HTU21D;63505;45.226;37.908;2023-05-14T09:02:41;22.91;54.36
74940;HTU21D;63505;45.226;37.908;2023-05-14T09:05:08;22.88;54.42
74940;HTU21D;63505;45.226;37.908;2023-05-14T09:07:35;22.88;54.09
74940;HTU21D;63505;45.226;37.908;2023-05-14T09:10:01;22.92;54.07
74940;HTU21D;63505;45.226;37.908;2023-05-14T09:12:28;23.02;53.89
74940;HTU21D;63505;45.226;37.908;2023-05-14T09:14:54;23.09;53.46
74940;HTU21D;63505;45.226;37.908;2023-05-14T09:17:20;23.11;53.30
74940;HTU21D;63505;45.226;37.908;2023-05-14T09:19:46;23.05;53.21
74940;HTU21D;63505;45.226;37.908;2023-05-14T09:22:18;23.05;53.16
74940;HTU21D;63505;45.226;37.908;2023-05-14T09:24:44;23.07;52.96
74940;HTU21D;63505;45.226;37.908;2023-05-14T09:27:18;23.03;52.99
74940;HTU21D;63505;45.226;37.908;2023-05-14T09:29:47;23.05;53.05
74940;HTU21D;63505;45.226;37.908;2023-05-14T09:32:14;22.95;52.86
74940;HTU21D;63505;45.226;37.908;2023-05-14T09:34:41;22.94;52.88
74940;HTU21D;63505;45.226;37.908;2023-05-14T09:37:08;23.08;52.95
74940;HTU21D;63505;45.226;37.908;2023-05-14T09:39:35;23.26;52.88
74940;HTU21D;63505;45.226;37.908;2023-05-14T09:42:02;23.40;52.57
74940;HTU21D;63505;45.226;37.908;2023-05-14T09:44:28;23.56;52.55
74940;HTU21D;63505;45.226;37.908;2023-05-14T09:46:55;23.69;52.25
74940;HTU21D;63505;45.226;37.908;2023-05-14T09:49:21;23.79;52.15
74940;HTU21D;63505;45.226;37.908;2023-05-14T09:51:48;23.92;52.09
74940;HTU21D;63505;45.226;37.908;2023-05-14T09:54:14;24.02;52.00
74940;HTU21D;63505;45.226;37.908;2023-05-14T09:56:41;24.12;51.77
74940;HTU21D;63505;45.226;37.908;2023-05-14T09:59:07;24.06;51.16
74940;HTU21D;63505;45.226;37.908;2023-05-14T10:01:34;24.05;50.79
74940;HTU21D;63505;45.226;37.908;2023-05-14T10:04:06;24.09;50.55
74940;HTU21D;63505;45.226;37.908;2023-05-14T10:06:35;24.09;50.13
74940;HTU21D;63505;45.226;37.908;2023-05-14T10:09:03;24.15;50.17
74940;HTU21D;63505;45.226;37.908;2023-05-14T10:11:32;24.26;49.94
74940;HTU21D;63505;45.226;37.908;2023-05-14T10:14:06;24.18;49.44
74940;HTU21D;63505;45.226;37.908;2023-05-14T10:16:36;24.18;49.66
74940;HTU21D;63505;45.226;37.908;2023-05-14T10:19:10;24.27;49.75
74940;HTU21D;63505;45.226;37.908;2023-05-14T10:21:37;24.35;49.85
74940;HTU21D;63505;45.226;37.908;2023-05-14T10:24:06;24.39;49.76
74940;HTU21D;63505;45.226;37.908;2023-05-14T10:26:37;24.32;49.69
74940;HTU21D;63505;45.226;37.908;2023-05-14T10:29:04;24.21;49.67
74940;HTU21D;63505;45.226;37.908;2023-05-14T10:31:53;24.15;49.36
74940;HTU21D;63505;45.226;37.908;2023-05-14T10:34:36;24.12;49.11
74940;HTU21D;63505;45.226;37.908;2023-05-14T10:37:08;24.21;49.18
74940;HTU21D;63505;45.226;37.908;2023-05-14T10:42:19;24.48;48.89
74940;HTU21D;63505;45.226;37.908;2023-05-14T10:45:06;24.62;48.73
74940;HTU21D;63505;45.226;37.908;2023-05-14T10:47:34;24.78;48.30
74940;HTU21D;63505;45.226;37.908;2023-05-14T10:50:09;25.15;48.18
74940;HTU21D;63505;45.226;37.908;2023-05-14T10:52:35;25.57;47.76
74940;HTU21D;63505;45.226;37.908;2023-05-14T10:55:03;25.82;46.93
74940;HTU21D;63505;45.226;37.908;2023-05-14T10:57:35;26.07;46.02
74940;HTU21D;63505;45.226;37.908;2023-05-14T11:00:01;26.38;45.46
74940;HTU21D;63505;45.226;37.908;2023-05-14T11:02:30;26.55;44.16
74940;HTU21D;63505;45.226;37.908;2023-05-14T11:05:04;26.67;43.88
74940;HTU21D;63505;45.226;37.908;2023-05-14T11:07:38;26.91;43.67
74940;HTU21D;63505;45.226;37.908;2023-05-14T11:10:06;26.95;43.27
74940;HTU21D;63505;45.226;37.908;2023-05-14T11:12:34;26.85;43.15
74940;HTU21D;63505;45.226;37.908;2023-05-14T11:15:01;27.04;43.01
74940;HTU21D;63505;45.226;37.908;2023-05-14T11:17:29;27.22;42.71
74940;HTU21D;63505;45.226;37.908;2023-05-14T11:19:56;27.42;42.36
74940;HTU21D;63505;45.226;37.908;2023-05-14T11:22:22;27.57;41.86
74940;HTU21D;63505;45.226;37.908;2023-05-14T11:24:48;27.56;41.99
74940;HTU21D;63505;45.226;37.908;2023-05-14T11:27:14;27.68;41.45
74940;HTU21D;63505;45.226;37.908;2023-05-14T11:29:45;27.43;41.35
74940;HTU21D;63505;45.226;37.908;2023-05-14T11:32:12;27.17;41.97
74940;HTU21D;63505;45.226;37.908;2023-05-14T11:34:38;27.04;42.13
74940;HTU21D;63505;45.226;37.908;2023-05-14T11:37:05;27.06;41.49
74940;HTU21D;63505;45.226;37.908;2023-05-14T11:39:31;26.96;41.50
74940;HTU21D;63505;45.226;37.908;2023-05-14T11:41:58;26.56;42.10
74940;HTU21D;63505;45.226;37.908;2023-05-14T11:44:24;26.07;43.08
74940;HTU21D;63505;45.226;37.908;2023-05-14T11:46:56;25.51;44.18
74940;HTU21D;63505;45.226;37.908;2023-05-14T11:49:23;24.88;45.63
74940;HTU21D;63505;45.226;37.908;2023-05-14T11:52:05;24.04;47.54
74940;HTU21D;63505;45.226;37.908;2023-05-14T11:54:33;23.11;48.57
74940;HTU21D;63505;45.226;37.908;2023-05-14T11:57:03;22.38;48.65
74940;HTU21D;63505;45.226;37.908;2023-05-14T11:59:32;21.65;49.18
74940;HTU21D;63505;45.226;37.908;2023-05-14T12:01:58;20.70;49.42
74940;HTU21D;63505;45.226;37.908;2023-05-14T12:04:24;20.16;50.78
74940;HTU21D;63505;45.226;37.908;2023-05-14T12:06:51;19.92;51.64
74940;HTU21D;63505;45.226;37.908;2023-05-14T12:09:19;19.71;52.51
74940;HTU21D;63505;45.226;37.908;2023-05-14T12:11:46;19.58;53.14
74940;HTU21D;63505;45.226;37.908;2023-05-14T12:14:22;19.45;53.94
74940;HTU21D;63505;45.226;37.908;2023-05-14T12:16:49;19.45;54.14
74940;HTU21D;63505;45.226;37.908;2023-05-14T12:19:17;19.54;54.45
74940;HTU21D;63505;45.226;37.908;2023-05-14T12:21:45;19.63;54.73
74940;HTU21D;63505;45.226;37.908;2023-05-14T12:24:17;19.75;55.22
74940;HTU21D;63505;45.226;37.908;2023-05-14T12:26:44;19.90;55.30
74940;HTU21D;63505;45.226;37.908;2023-05-14T12:29:12;20.13;55.53
74940;HTU21D;63505;45.226;37.908;2023-05-14T12:31:45;20.42;55.26
74940;HTU21D;63505;45.226;37.908;2023-05-14T12:34:12;20.76;54.62
74940;HTU21D;63505;45.226;37.908;2023-05-14T12:36:37;21.16;54.71
74940;HTU21D;63505;45.226;37.908;2023-05-14T12:39:03;21.60;54.64
74940;HTU21D;63505;45.226;37.908;2023-05-14T12:41:31;22.03;54.40
74940;HTU21D;63505;45.226;37.908;2023-05-14T12:43:57;22.46;54.17
74940;HTU21D;63505;45.226;37.908;2023-05-14T12:46:24;22.79;53.52
74940;HTU21D;63505;45.226;37.908;2023-05-14T12:48:51;23.11;52.56
74940;HTU21D;63505;45.226;37.908;2023-05-14T12:51:17;23.43;51.71
74940;HTU21D;63505;45.226;37.908;2023-05-14T12:53:43;23.74;51.40
74940;HTU21D;63505;45.226;37.908;2023-05-14T12:56:09;24.05;51.06
74940;HTU21D;63505;45.226;37.908;2023-05-14T12:58:35;24.32;50.53
74940;HTU21D;63505;45.226;37.908;2023-05-14T13:01:01;24.53;49.89
74940;HTU21D;63505;45.226;37.908;2023-05-14T13:03:27;24.66;49.37
74940;HTU21D;63505;45.226;37.908;2023-05-14T13:05:53;24.76;49.29
74940;HTU21D;63505;45.226;37.908;2023-05-14T13:08:22;24.88;48.99
74940;HTU21D;63505;45.226;37.908;2023-05-14T13:10:52;24.92;48.57
74940;HTU21D;63505;45.226;37.908;2023-05-14T13:13:19;24.97;48.19
74940;HTU21D;63505;45.226;37.908;2023-05-14T13:15:45;25.02;47.96
74940;HTU21D;63505;45.226;37.908;2023-05-14T13:18:15;25.01;47.70
74940;HTU21D;63505;45.226;37.908;2023-05-14T13:20:41;25.00;47.61
74940;HTU21D;63505;45.226;37.908;2023-05-14T13:23:07;25.01;47.34
74940;HTU21D;63505;45.226;37.908;2023-05-14T13:25:33;24.93;47.24
74940;HTU21D;63505;45.226;37.908;2023-05-14T13:27:59;24.88;47.34
74940;HTU21D;63505;45.226;37.908;2023-05-14T13:30:25;24.85;46.93
74940;HTU21D;63505;45.226;37.908;2023-05-14T13:32:51;24.80;46.77
74940;HTU21D;63505;45.226;37.908;2023-05-14T13:35:17;24.73;46.50
74940;HTU21D;63505;45.226;37.908;2023-05-14T13:37:43;24.69;46.18
74940;HTU21D;63505;45.226;37.908;2023-05-14T13:40:10;24.71;46.28
74940;HTU21D;63505;45.226;37.908;2023-05-14T13:42:36;24.66;46.12
74940;HTU21D;63505;45.226;37.908;2023-05-14T13:45:02;24.59;46.02
74940;HTU21D;63505;45.226;37.908;2023-05-14T13:47:28;24.40;45.73
74940;HTU21D;63505;45.226;37.908;2023-05-14T13:49:54;24.14;45.96
74940;HTU21D;63505;45.226;37.908;2023-05-14T13:52:21;23.92;46.35
74940;HTU21D;63505;45.226;37.908;2023-05-14T13:54:47;23.76;46.64
74940;HTU21D;63505;45.226;37.908;2023-05-14T13:57:13;23.55;46.93
74940;HTU21D;63505;45.226;37.908;2023-05-14T14:00:05;23.39;47.04
74940;HTU21D;63505;45.226;37.908;2023-05-14T14:02:32;23.30;47.18
74940;HTU21D;63505;45.226;37.908;2023-05-14T14:04:58;23.28;47.20
74940;HTU21D;63505;45.226;37.908;2023-05-14T14:07:24;23.28;47.31
74940;HTU21D;63505;45.226;37.908;2023-05-14T14:09:49;23.25;47.47
74940;HTU21D;63505;45.226;37.908;2023-05-14T14:12:16;23.21;47.54
74940;HTU21D;63505;45.226;37.908;2023-05-14T14:14:41;23.16;47.84
74940;HTU21D;63505;45.226;37.908;2023-05-14T14:17:07;23.07;48.28
74940;HTU21D;63505;45.226;37.908;2023-05-14T14:19:33;22.93;48.71
74940;HTU21D;63505;45.226;37.908;2023-05-14T14:21:59;22.80;49.19
74940;HTU21D;63505;45.226;37.908;2023-05-14T14:24:25;22.55;49.95
74940;HTU21D;63505;45.226;37.908;2023-05-14T14:26:50;22.22;50.93
74940;HTU21D;63505;45.226;37.908;2023-05-14T14:29:16;21.91;51.91
74940;HTU21D;63505;45.226;37.908;2023-05-14T14:31:42;21.64;52.57
74940;HTU21D;63505;45.226;37.908;2023-05-14T14:34:08;21.48;52.88
74940;HTU21D;63505;45.226;37.908;2023-05-14T14:36:34;21.34;53.02
74940;HTU21D;63505;45.226;37.908;2023-05-14T14:39:00;21.22;53.23
74940;HTU21D;63505;45.226;37.908;2023-05-14T14:41:26;21.14;53.47
74940;HTU21D;63505;45.226;37.908;2023-05-14T14:43:52;21.02;53.65
74940;HTU21D;63505;45.226;37.908;2023-05-14T14:46:18;20.84;53.74
74940;HTU21D;63505;45.226;37.908;2023-05-14T14:48:43;20.74;53.81
74940;HTU21D;63505;45.226;37.908;2023-05-14T14:51:09;20.57;53.91
74940;HTU21D;63505;45.226;37.908;2023-05-14T14:53:35;20.36;54.04
74940;HTU21D;63505;45.226;37.908;2023-05-14T14:56:02;20.21;53.97
74940;HTU21D;63505;45.226;37.908;2023-05-14T14:58:28;20.07;53.95
74940;HTU21D;63505;45.226;37.908;2023-05-14T15:00:55;19.99;53.88
74940;HTU21D;63505;45.226;37.908;2023-05-14T15:03:22;19.88;53.84
74940;HTU21D;63505;45.226;37.908;2023-05-14T15:05:48;19.79;53.87
74940;HTU21D;63505;45.226;37.908;2023-05-14T15:08:14;19.69;53.94
74940;HTU21D;63505;45.226;37.908;2023-05-14T15:10:40;19.61;54.07
74940;HTU21D;63505;45.226;37.908;2023-05-14T15:13:07;19.52;54.23